sensor_id;sensor_type;location;lat;lon;timestamp;pressure;altitude;pressure_sealevel;temperature;humidity
55022;BME280;68328;35.990;-86.756;2023-03-22T00:01:13;99713.77;;;12.44;40.79
55022;BME280;68328;35.990;-86.756;2023-03-22T00:03:37;99719.49;;;12.50;39.10
55022;BME280;68328;35.990;-86.756;2023-03-22T00:06:02;99713.02;;;12.07;39.41
55022;BME280;68328;35.990;-86.756;2023-03-22T00:08:28;99701.76;;;12.46;40.56
55022;BME280;68328;35.990;-86.756;2023-03-22T00:10:53;99681.27;;;11.96;41.77
55022;BME280;68328;35.990;-86.756;2023-03-22T00:13:18;99664.51;;;11.21;41.46
55022;BME280;68328;35.990;-86.756;2023-03-22T00:15:44;99654.31;;;11.99;40.40
55022;BME280;68328;35.990;-86.756;2023-03-22T00:18:09;99643.41;;;12.24;41.85
55022;BME280;68328;35.990;-86.756;2023-03-22T00:20:34;99645.41;;;12.20;40.33
55022;BME280;68328;35.990;-86.756;2023-03-22T00:23:00;99650.69;;;12.48;40.26
55022;BME280;68328;35.990;-86.756;2023-03-22T00:25:24;99641.46;;;10.92;41.91
55022;BME280;68328;35.990;-86.756;2023-03-22T00:27:49;99638.20;;;10.71;42.67
55022;BME280;68328;35.990;-86.756;2023-03-22T00:30:16;99627.18;;;10.75;42.71
55022;BME280;68328;35.990;-86.756;2023-03-22T00:32:41;99619.09;;;12.12;42.75
55022;BME280;68328;35.990;-86.756;2023-03-22T00:35:08;99623.65;;;12.57;41.91
55022;BME280;68328;35.990;-86.756;2023-03-22T00:37:31;99619.26;;;11.54;42.68
55022;BME280;68328;35.990;-86.756;2023-03-22T00:39:57;99613.62;;;10.60;42.84
55022;BME280;68328;35.990;-86.756;2023-03-22T00:42:22;99610.49;;;11.02;42.65
55022;BME280;68328;35.990;-86.756;2023-03-22T00:44:47;99604.89;;;12.17;42.65
55022;BME280;68328;35.990;-86.756;2023-03-22T00:47:13;99608.02;;;12.59;41.59
55022;BME280;68328;35.990;-86.756;2023-03-22T00:49:38;99613.22;;;13.12;41.10
55022;BME280;68328;35.990;-86.756;2023-03-22T00:52:05;99614.21;;;13.33;41.69
55022;BME280;68328;35.990;-86.756;2023-03-22T00:54:29;99620.08;;;13.39;40.39
55022;BME280;68328;35.990;-86.756;2023-03-22T00:56:55;99626.51;;;13.14;40.18
55022;BME280;68328;35.990;-86.756;2023-03-22T00:59:21;99626.05;;;13.47;39.46
55022;BME280;68328;35.990;-86.756;2023-03-22T01:01:46;99626.09;;;12.99;39.75
55022;BME280;68328;35.990;-86.756;2023-03-22T01:04:11;99621.87;;;13.24;40.10
55022;BME280;68328;35.990;-86.756;2023-03-22T01:06:36;99615.40;;;13.69;41.93
55022;BME280;68328;35.990;-86.756;2023-03-22T01:09:01;99615.26;;;13.30;42.08
55022;BME280;68328;35.990;-86.756;2023-03-22T01:11:27;99616.91;;;13.58;41.50
55022;BME280;68328;35.990;-86.756;2023-03-22T01:13:52;99623.23;;;13.48;41.56
55022;BME280;68328;35.990;-86.756;2023-03-22T01:16:19;99627.35;;;13.24;42.25
55022;BME280;68328;35.990;-86.756;2023-03-22T01:18:43;99633.17;;;13.34;42.02
55022;BME280;68328;35.990;-86.756;2023-03-22T01:21:09;99636.26;;;13.18;41.96
55022;BME280;68328;35.990;-86.756;2023-03-22T01:23:34;99631.34;;;13.29;43.24
55022;BME280;68328;35.990;-86.756;2023-03-22T01:25:59;99622.72;;;13.05;43.39
55022;BME280;68328;35.990;-86.756;2023-03-22T01:28:24;99622.02;;;13.41;44.02
55022;BME280;68328;35.990;-86.756;2023-03-22T01:30:49;99617.69;;;13.11;43.91
55022;BME280;68328;35.990;-86.756;2023-03-22T01:33:15;99624.76;;;12.98;45.15
55022;BME280;68328;35.990;-86.756;2023-03-22T01:35:40;99635.33;;;12.61;45.15
55022;BME280;68328;35.990;-86.756;2023-03-22T01:38:05;99649.85;;;12.97;45.08
55022;BME280;68328;35.990;-86.756;2023-03-22T01:40:31;99654.82;;;13.09;45.21
55022;BME280;68328;35.990;-86.756;2023-03-22T01:42:56;99652.83;;;13.00;44.14
55022;BME280;68328;35.990;-86.756;2023-03-22T01:45:31;99647.12;;;12.61;44.39
55022;BME280;68328;35.990;-86.756;2023-03-22T01:47:51;99652.34;;;13.08;44.33
55022;BME280;68328;35.990;-86.756;2023-03-22T01:50:12;99662.69;;;13.08;44.40
55022;BME280;68328;35.990;-86.756;2023-03-22T01:52:39;99683.49;;;12.67;44.04
55022;BME280;68328;35.990;-86.756;2023-03-22T01:55:04;99685.69;;;13.15;43.50
55022;BME280;68328;35.990;-86.756;2023-03-22T01:57:28;99675.54;;;13.12;43.56
55022;BME280;68328;35.990;-86.756;2023-03-22T01:59:54;99666.76;;;12.94;44.40
55022;BME280;68328;35.990;-86.756;2023-03-22T02:02:19;99657.01;;;13.35;44.36
55022;BME280;68328;35.990;-86.756;2023-03-22T02:04:44;99652.05;;;13.23;44.12
55022;BME280;68328;35.990;-86.756;2023-03-22T02:07:12;99649.69;;;13.02;44.61
55022;BME280;68328;35.990;-86.756;2023-03-22T02:09:35;99645.17;;;12.87;44.80
55022;BME280;68328;35.990;-86.756;2023-03-22T02:12:07;99649.40;;;12.70;45.83
55022;BME280;68328;35.990;-86.756;2023-03-22T02:14:36;99660.80;;;12.69;45.39
55022;BME280;68328;35.990;-86.756;2023-03-22T02:16:59;99670.45;;;12.55;45.08
55022;BME280;68328;35.990;-86.756;2023-03-22T02:19:25;99670.60;;;12.56;45.37
55022;BME280;68328;35.990;-86.756;2023-03-22T02:24:20;99687.99;;;12.89;45.32
55022;BME280;68328;35.990;-86.756;2023-03-22T02:26:44;99691.51;;;13.06;45.47
55022;BME280;68328;35.990;-86.756;2023-03-22T02:29:03;99703.39;;;12.85;45.27
55022;BME280;68328;35.990;-86.756;2023-03-22T02:36:32;99716.83;;;12.58;46.58
55022;BME280;68328;35.990;-86.756;2023-03-22T02:41:10;99719.60;;;12.91;46.47
55022;BME280;68328;35.990;-86.756;2023-03-22T02:43:35;99714.09;;;12.69;46.60
55022;BME280;68328;35.990;-86.756;2023-03-22T02:46:00;99716.37;;;12.79;46.69
55022;BME280;68328;35.990;-86.756;2023-03-22T02:48:26;99711.68;;;12.82;46.49
55022;BME280;68328;35.990;-86.756;2023-03-22T02:50:51;99699.53;;;12.58;46.81
55022;BME280;68328;35.990;-86.756;2023-03-22T02:53:16;99703.24;;;12.86;46.92
55022;BME280;68328;35.990;-86.756;2023-03-22T02:55:40;99721.92;;;12.78;46.91
55022;BME280;68328;35.990;-86.756;2023-03-22T02:58:06;99757.61;;;12.61;47.03
55022;BME280;68328;35.990;-86.756;2023-03-22T03:00:30;99752.13;;;12.51;47.02
55022;BME280;68328;35.990;-86.756;2023-03-22T03:02:55;99775.74;;;12.34;47.43
55022;BME280;68328;35.990;-86.756;2023-03-22T03:05:19;99787.77;;;12.43;47.76
55022;BME280;68328;35.990;-86.756;2023-03-22T03:07:45;99782.16;;;12.55;47.59
55022;BME280;68328;35.990;-86.756;2023-03-22T03:10:10;99773.83;;;12.44;48.07
55022;BME280;68328;35.990;-86.756;2023-03-22T03:12:35;99764.14;;;12.49;47.79
55022;BME280;68328;35.990;-86.756;2023-03-22T03:15:00;99775.83;;;12.46;47.64
55022;BME280;68328;35.990;-86.756;2023-03-22T03:17:36;99776.11;;;12.28;47.77
55022;BME280;68328;35.990;-86.756;2023-03-22T03:20:00;99758.50;;;12.69;47.18
55022;BME280;68328;35.990;-86.756;2023-03-22T03:22:28;99733.13;;;12.89;47.16
55022;BME280;68328;35.990;-86.756;2023-03-22T03:24:46;99726.62;;;12.73;47.23
55022;BME280;68328;35.990;-86.756;2023-03-22T03:27:12;99721.20;;;12.77;47.09
55022;BME280;68328;35.990;-86.756;2023-03-22T03:29:39;99717.32;;;12.81;46.67
55022;BME280;68328;35.990;-86.756;2023-03-22T03:32:03;99705.29;;;12.65;46.75
55022;BME280;68328;35.990;-86.756;2023-03-22T03:34:26;99693.39;;;11.93;47.05
55022;BME280;68328;35.990;-86.756;2023-03-22T03:36:53;99684.11;;;12.54;46.49
55022;BME280;68328;35.990;-86.756;2023-03-22T03:39:14;99687.84;;;12.33;46.32
55022;BME280;68328;35.990;-86.756;2023-03-22T03:41:40;99696.66;;;12.51;46.13
55022;BME280;68328;35.990;-86.756;2023-03-22T03:44:05;99718.09;;;12.54;44.84
55022;BME280;68328;35.990;-86.756;2023-03-22T03:46:30;99710.32;;;12.10;45.11
55022;BME280;68328;35.990;-86.756;2023-03-22T03:48:56;99704.48;;;12.60;45.77
55022;BME280;68328;35.990;-86.756;2023-03-22T03:51:21;99707.52;;;12.67;45.32
55022;BME280;68328;35.990;-86.756;2023-03-22T03:53:47;99713.94;;;12.46;45.90
55022;BME280;68328;35.990;-86.756;2023-03-22T03:56:12;99732.82;;;12.58;47.11
55022;BME280;68328;35.990;-86.756;2023-03-22T03:58:38;99744.70;;;12.39;48.13
55022;BME280;68328;35.990;-86.756;2023-03-22T04:01:03;99768.49;;;11.99;48.01
55022;BME280;68328;35.990;-86.756;2023-03-22T04:03:29;99780.63;;;12.05;48.08
55022;BME280;68328;35.990;-86.756;2023-03-22T04:05:54;99771.74;;;12.39;47.35
55022;BME280;68328;35.990;-86.756;2023-03-22T04:08:19;99759.54;;;12.60;47.24
55022;BME280;68328;35.990;-86.756;2023-03-22T04:10:48;99751.73;;;12.76;47.05
55022;BME280;68328;35.990;-86.756;2023-03-22T04:13:10;99755.82;;;12.75;46.75
55022;BME280;68328;35.990;-86.756;2023-03-22T04:15:36;99769.72;;;12.68;47.37
55022;BME280;68328;35.990;-86.756;2023-03-22T04:18:01;99771.17;;;12.49;47.28
55022;BME280;68328;35.990;-86.756;2023-03-22T04:20:27;99778.28;;;12.55;47.17
55022;BME280;68328;35.990;-86.756;2023-03-22T04:22:52;99773.20;;;12.70;47.04
55022;BME280;68328;35.990;-86.756;2023-03-22T04:25:18;99770.96;;;12.84;46.79
55022;BME280;68328;35.990;-86.756;2023-03-22T04:27:44;99765.74;;;12.94;46.59
55022;BME280;68328;35.990;-86.756;2023-03-22T04:30:11;99756.75;;;12.95;46.70
55022;BME280;68328;35.990;-86.756;2023-03-22T04:32:34;99755.47;;;12.97;46.60
55022;BME280;68328;35.990;-86.756;2023-03-22T04:34:59;99750.88;;;12.89;47.22
55022;BME280;68328;35.990;-86.756;2023-03-22T04:37:25;99748.81;;;12.83;47.23
55022;BME280;68328;35.990;-86.756;2023-03-22T04:39:51;99744.67;;;12.62;47.37
55022;BME280;68328;35.990;-86.756;2023-03-22T04:42:16;99742.64;;;12.90;46.98
55022;BME280;68328;35.990;-86.756;2023-03-22T04:44:41;99738.51;;;12.77;47.20
55022;BME280;68328;35.990;-86.756;2023-03-22T04:47:07;99737.27;;;12.80;47.53
55022;BME280;68328;35.990;-86.756;2023-03-22T04:49:32;99746.68;;;12.87;47.33
55022;BME280;68328;35.990;-86.756;2023-03-22T04:51:58;99759.13;;;12.80;47.08
55022;BME280;68328;35.990;-86.756;2023-03-22T04:54:24;99758.23;;;12.67;47.03
55022;BME280;68328;35.990;-86.756;2023-03-22T04:56:49;99756.20;;;12.93;47.09
55022;BME280;68328;35.990;-86.756;2023-03-22T04:59:14;99763.81;;;12.91;47.16
55022;BME280;68328;35.990;-86.756;2023-03-22T05:01:39;99761.25;;;12.92;47.18
55022;BME280;68328;35.990;-86.756;2023-03-22T05:04:05;99754.18;;;12.99;47.18
55022;BME280;68328;35.990;-86.756;2023-03-22T05:06:30;99743.41;;;12.97;47.29
55022;BME280;68328;35.990;-86.756;2023-03-22T05:08:55;99742.89;;;12.82;47.39
55022;BME280;68328;35.990;-86.756;2023-03-22T05:11:21;99739.91;;;12.99;47.20
55022;BME280;68328;35.990;-86.756;2023-03-22T05:13:47;99739.58;;;12.95;47.47
55022;BME280;68328;35.990;-86.756;2023-03-22T05:16:12;99736.74;;;12.68;47.28
55022;BME280;68328;35.990;-86.756;2023-03-22T05:18:38;99733.90;;;13.06;47.05
55022;BME280;68328;35.990;-86.756;2023-03-22T05:21:04;99738.10;;;13.07;47.18
55022;BME280;68328;35.990;-86.756;2023-03-22T05:23:28;99749.90;;;12.89;47.10
55022;BME280;68328;35.990;-86.756;2023-03-22T05:25:54;99751.53;;;13.05;46.66
55022;BME280;68328;35.990;-86.756;2023-03-22T05:28:20;99746.54;;;13.06;46.75
55022;BME280;68328;35.990;-86.756;2023-03-22T05:30:44;99746.60;;;13.10;46.66
55022;BME280;68328;35.990;-86.756;2023-03-22T05:33:10;99742.89;;;13.07;46.65
55022;BME280;68328;35.990;-86.756;2023-03-22T05:35:37;99747.94;;;13.03;46.65
55022;BME280;68328;35.990;-86.756;2023-03-22T05:38:00;99745.68;;;13.02;46.24
55022;BME280;68328;35.990;-86.756;2023-03-22T05:40:26;99744.88;;;12.81;46.67
55022;BME280;68328;35.990;-86.756;2023-03-22T05:42:52;99740.53;;;13.16;46.63
55022;BME280;68328;35.990;-86.756;2023-03-22T05:45:18;99740.54;;;13.01;46.53
55022;BME280;68328;35.990;-86.756;2023-03-22T05:47:42;99746.30;;;12.96;46.72
55022;BME280;68328;35.990;-86.756;2023-03-22T05:50:10;99735.45;;;12.94;47.00
55022;BME280;68328;35.990;-86.756;2023-03-22T05:52:33;99729.74;;;13.07;46.64
55022;BME280;68328;35.990;-86.756;2023-03-22T05:54:59;99735.78;;;12.86;46.04
55022;BME280;68328;35.990;-86.756;2023-03-22T05:57:25;99726.87;;;12.56;43.84
55022;BME280;68328;35.990;-86.756;2023-03-22T05:59:49;99725.94;;;11.98;44.65
55022;BME280;68328;35.990;-86.756;2023-03-22T06:02:15;99727.27;;;12.04;45.98
55022;BME280;68328;35.990;-86.756;2023-03-22T06:04:40;99727.96;;;12.24;44.20
55022;BME280;68328;35.990;-86.756;2023-03-22T06:07:06;99724.04;;;10.38;44.56
55022;BME280;68328;35.990;-86.756;2023-03-22T06:09:32;99707.65;;;11.60;44.31
55022;BME280;68328;35.990;-86.756;2023-03-22T06:11:57;99711.05;;;12.89;43.91
55022;BME280;68328;35.990;-86.756;2023-03-22T06:14:22;99704.66;;;13.44;43.08
55022;BME280;68328;35.990;-86.756;2023-03-22T06:16:48;99696.75;;;12.72;42.65
55022;BME280;68328;35.990;-86.756;2023-03-22T06:19:13;99694.96;;;11.53;44.40
55022;BME280;68328;35.990;-86.756;2023-03-22T06:21:39;99703.48;;;12.54;43.67
55022;BME280;68328;35.990;-86.756;2023-03-22T06:24:04;99703.40;;;12.91;42.55
55022;BME280;68328;35.990;-86.756;2023-03-22T06:26:31;99713.12;;;12.56;42.56
55022;BME280;68328;35.990;-86.756;2023-03-22T06:28:55;99717.47;;;12.92;41.76
55022;BME280;68328;35.990;-86.756;2023-03-22T06:31:21;99720.19;;;13.13;42.55
55022;BME280;68328;35.990;-86.756;2023-03-22T06:33:46;99722.73;;;13.56;41.78
55022;BME280;68328;35.990;-86.756;2023-03-22T06:36:12;99723.34;;;13.69;43.20
55022;BME280;68328;35.990;-86.756;2023-03-22T06:38:38;99723.22;;;13.42;41.59
55022;BME280;68328;35.990;-86.756;2023-03-22T06:41:03;99719.15;;;13.59;43.72
55022;BME280;68328;35.990;-86.756;2023-03-22T06:43:28;99714.56;;;13.81;43.58
55022;BME280;68328;35.990;-86.756;2023-03-22T06:45:53;99717.69;;;13.78;44.72
55022;BME280;68328;35.990;-86.756;2023-03-22T06:48:19;99716.11;;;13.95;44.28
55022;BME280;68328;35.990;-86.756;2023-03-22T06:50:45;99703.44;;;13.88;45.05
55022;BME280;68328;35.990;-86.756;2023-03-22T06:53:11;99693.70;;;13.76;44.19
55022;BME280;68328;35.990;-86.756;2023-03-22T06:55:36;99692.82;;;14.05;44.85
55022;BME280;68328;35.990;-86.756;2023-03-22T06:58:01;99692.09;;;14.00;44.15
55022;BME280;68328;35.990;-86.756;2023-03-22T07:00:27;99694.21;;;13.97;43.81
55022;BME280;68328;35.990;-86.756;2023-03-22T07:02:52;99692.32;;;13.76;43.85
55022;BME280;68328;35.990;-86.756;2023-03-22T07:05:17;99692.55;;;11.31;43.89
55022;BME280;68328;35.990;-86.756;2023-03-22T07:07:43;99695.23;;;13.00;43.68
55022;BME280;68328;35.990;-86.756;2023-03-22T07:10:09;99696.32;;;13.04;42.73
55022;BME280;68328;35.990;-86.756;2023-03-22T07:12:33;99697.47;;;12.68;42.43
55022;BME280;68328;35.990;-86.756;2023-03-22T07:14:59;99690.15;;;12.76;41.98
55022;BME280;68328;35.990;-86.756;2023-03-22T07:17:24;99684.32;;;10.43;45.85
55022;BME280;68328;35.990;-86.756;2023-03-22T07:19:49;99674.48;;;10.38;45.64
55022;BME280;68328;35.990;-86.756;2023-03-22T07:22:15;99679.43;;;10.20;45.55
55022;BME280;68328;35.990;-86.756;2023-03-22T07:24:40;99679.85;;;8.80;48.76
55022;BME280;68328;35.990;-86.756;2023-03-22T07:27:05;99675.31;;;9.65;48.39
55022;BME280;68328;35.990;-86.756;2023-03-22T07:29:30;99677.68;;;8.92;48.47
55022;BME280;68328;35.990;-86.756;2023-03-22T07:31:55;99667.84;;;9.99;46.57
55022;BME280;68328;35.990;-86.756;2023-03-22T07:34:21;99666.64;;;10.25;45.75
55022;BME280;68328;35.990;-86.756;2023-03-22T07:36:46;99661.93;;;9.11;47.87
55022;BME280;68328;35.990;-86.756;2023-03-22T07:39:11;99667.51;;;8.51;49.11
55022;BME280;68328;35.990;-86.756;2023-03-22T07:41:37;99668.86;;;9.13;49.10
55022;BME280;68328;35.990;-86.756;2023-03-22T07:44:03;99675.62;;;8.31;49.57
55022;BME280;68328;35.990;-86.756;2023-03-22T07:46:28;99668.40;;;8.74;49.54
55022;BME280;68328;35.990;-86.756;2023-03-22T07:48:53;99664.95;;;8.24;51.05
55022;BME280;68328;35.990;-86.756;2023-03-22T07:51:19;99663.72;;;9.43;48.58
55022;BME280;68328;35.990;-86.756;2023-03-22T07:53:44;99662.42;;;9.00;48.98
55022;BME280;68328;35.990;-86.756;2023-03-22T07:56:09;99652.21;;;8.96;49.69
55022;BME280;68328;35.990;-86.756;2023-03-22T07:58:35;99651.06;;;8.20;49.94
55022;BME280;68328;35.990;-86.756;2023-03-22T08:01:04;99646.24;;;8.35;51.17
55022;BME280;68328;35.990;-86.756;2023-03-22T08:03:26;99644.11;;;9.17;49.33
55022;BME280;68328;35.990;-86.756;2023-03-22T08:05:51;99638.07;;;9.38;47.31
55022;BME280;68328;35.990;-86.756;2023-03-22T08:08:16;99646.91;;;8.27;50.25
55022;BME280;68328;35.990;-86.756;2023-03-22T08:10:47;99641.31;;;8.30;49.88
55022;BME280;68328;35.990;-86.756;2023-03-22T08:13:07;99633.76;;;9.14;48.43
55022;BME280;68328;35.990;-86.756;2023-03-22T08:15:32;99623.94;;;9.65;48.20
55022;BME280;68328;35.990;-86.756;2023-03-22T08:17:58;99621.87;;;10.25;46.60
55022;BME280;68328;35.990;-86.756;2023-03-22T08:20:25;99622.70;;;9.09;47.82
55022;BME280;68328;35.990;-86.756;2023-03-22T08:22:50;99634.44;;;9.43;47.57
55022;BME280;68328;35.990;-86.756;2023-03-22T08:25:14;99625.24;;;9.09;48.43
55022;BME280;68328;35.990;-86.756;2023-03-22T08:27:41;99625.71;;;9.82;47.28
55022;BME280;68328;35.990;-86.756;2023-03-22T08:30:07;99630.00;;;8.91;47.78
55022;BME280;68328;35.990;-86.756;2023-03-22T08:32:32;99633.47;;;8.97;49.23
55022;BME280;68328;35.990;-86.756;2023-03-22T08:34:56;99629.90;;;9.76;48.29
55022;BME280;68328;35.990;-86.756;2023-03-22T08:37:21;99632.00;;;9.20;48.19
55022;BME280;68328;35.990;-86.756;2023-03-22T08:39:47;99624.98;;;9.16;50.53
55022;BME280;68328;35.990;-86.756;2023-03-22T08:42:12;99616.46;;;8.41;50.98
55022;BME280;68328;35.990;-86.756;2023-03-22T08:44:38;99618.63;;;9.35;48.58
55022;BME280;68328;35.990;-86.756;2023-03-22T08:47:03;99624.45;;;8.90;49.48
55022;BME280;68328;35.990;-86.756;2023-03-22T08:49:28;99622.49;;;9.21;47.93
55022;BME280;68328;35.990;-86.756;2023-03-22T08:51:54;99636.86;;;8.84;49.49
55022;BME280;68328;35.990;-86.756;2023-03-22T08:54:20;99639.07;;;8.98;49.18
55022;BME280;68328;35.990;-86.756;2023-03-22T08:56:46;99636.10;;;8.49;50.12
55022;BME280;68328;35.990;-86.756;2023-03-22T08:59:12;99644.23;;;8.76;49.73
55022;BME280;68328;35.990;-86.756;2023-03-22T09:01:37;99658.62;;;8.61;50.34
55022;BME280;68328;35.990;-86.756;2023-03-22T09:04:02;99652.32;;;9.49;48.56
55022;BME280;68328;35.990;-86.756;2023-03-22T09:06:27;99651.37;;;9.68;49.05
55022;BME280;68328;35.990;-86.756;2023-03-22T09:08:53;99649.74;;;8.44;51.93
55022;BME280;68328;35.990;-86.756;2023-03-22T09:11:19;99633.26;;;7.77;53.83
55022;BME280;68328;35.990;-86.756;2023-03-22T09:13:43;99647.21;;;9.48;49.81
55022;BME280;68328;35.990;-86.756;2023-03-22T09:16:09;99650.21;;;8.71;51.99
55022;BME280;68328;35.990;-86.756;2023-03-22T09:18:35;99650.67;;;9.01;51.23
55022;BME280;68328;35.990;-86.756;2023-03-22T09:21:00;99640.95;;;8.66;52.93
55022;BME280;68328;35.990;-86.756;2023-03-22T09:23:26;99632.24;;;8.38;53.94
55022;BME280;68328;35.990;-86.756;2023-03-22T09:25:50;99631.29;;;7.63;54.74
55022;BME280;68328;35.990;-86.756;2023-03-22T09:28:16;99620.82;;;9.41;51.37
55022;BME280;68328;35.990;-86.756;2023-03-22T09:30:42;99626.49;;;9.68;49.89
55022;BME280;68328;35.990;-86.756;2023-03-22T09:33:08;99639.84;;;8.73;53.28
55022;BME280;68328;35.990;-86.756;2023-03-22T09:35:33;99642.88;;;8.16;55.14
55022;BME280;68328;35.990;-86.756;2023-03-22T09:37:58;99644.94;;;8.71;53.85
55022;BME280;68328;35.990;-86.756;2023-03-22T09:40:27;99645.26;;;8.04;56.74
55022;BME280;68328;35.990;-86.756;2023-03-22T09:42:51;99643.94;;;9.03;54.76
55022;BME280;68328;35.990;-86.756;2023-03-22T09:45:17;99645.83;;;9.17;53.43
55022;BME280;68328;35.990;-86.756;2023-03-22T09:47:43;99638.71;;;8.88;52.67
55022;BME280;68328;35.990;-86.756;2023-03-22T09:50:10;99637.27;;;8.90;53.55
55022;BME280;68328;35.990;-86.756;2023-03-22T09:52:30;99635.48;;;8.45;54.93
55022;BME280;68328;35.990;-86.756;2023-03-22T09:54:56;99638.58;;;7.75;56.89
55022;BME280;68328;35.990;-86.756;2023-03-22T09:57:26;99639.61;;;7.76;57.41
55022;BME280;68328;35.990;-86.756;2023-03-22T09:59:52;99641.43;;;7.86;57.29
55022;BME280;68328;35.990;-86.756;2023-03-22T10:02:30;99638.20;;;9.19;54.65
55022;BME280;68328;35.990;-86.756;2023-03-22T10:04:46;99637.29;;;7.33;57.81
55022;BME280;68328;35.990;-86.756;2023-03-22T10:07:08;99641.60;;;8.30;56.02
55022;BME280;68328;35.990;-86.756;2023-03-22T10:09:32;99651.83;;;8.66;56.44
55022;BME280;68328;35.990;-86.756;2023-03-22T10:12:00;99645.81;;;7.95;57.37
55022;BME280;68328;35.990;-86.756;2023-03-22T10:14:26;99650.65;;;8.27;56.66
55022;BME280;68328;35.990;-86.756;2023-03-22T10:16:45;99637.05;;;7.80;58.45
55022;BME280;68328;35.990;-86.756;2023-03-22T10:19:18;99639.90;;;9.11;55.27
55022;BME280;68328;35.990;-86.756;2023-03-22T10:21:36;99634.42;;;8.30;57.64
55022;BME280;68328;35.990;-86.756;2023-03-22T10:24:04;99637.54;;;7.88;59.11
55022;BME280;68328;35.990;-86.756;2023-03-22T10:26:28;99654.09;;;7.72;58.31
55022;BME280;68328;35.990;-86.756;2023-03-22T10:28:57;99645.24;;;8.11;59.08
55022;BME280;68328;35.990;-86.756;2023-03-22T10:31:17;99653.29;;;8.07;58.45
55022;BME280;68328;35.990;-86.756;2023-03-22T10:33:48;99646.17;;;7.73;60.46
55022;BME280;68328;35.990;-86.756;2023-03-22T10:36:12;99648.49;;;8.28;58.95
55022;BME280;68328;35.990;-86.756;2023-03-22T10:38:35;99650.66;;;7.68;59.95
55022;BME280;68328;35.990;-86.756;2023-03-22T10:40:59;99653.18;;;8.48;58.35
55022;BME280;68328;35.990;-86.756;2023-03-22T10:43:29;99656.16;;;8.01;59.63
55022;BME280;68328;35.990;-86.756;2023-03-22T10:45:51;99645.69;;;8.10;59.08
55022;BME280;68328;35.990;-86.756;2023-03-22T10:48:23;99649.33;;;7.72;60.25
55022;BME280;68328;35.990;-86.756;2023-03-22T10:50:43;99658.47;;;8.20;61.36
55022;BME280;68328;35.990;-86.756;2023-03-22T10:53:11;99664.54;;;8.72;58.81
55022;BME280;68328;35.990;-86.756;2023-03-22T10:55:36;99679.49;;;8.72;58.13
55022;BME280;68328;35.990;-86.756;2023-03-22T11:00:23;99692.76;;;8.73;57.38
55022;BME280;68328;35.990;-86.756;2023-03-22T11:02:52;99683.81;;;8.31;59.71
55022;BME280;68328;35.990;-86.756;2023-03-22T11:05:22;99682.97;;;8.96;57.23
55022;BME280;68328;35.990;-86.756;2023-03-22T11:07:41;99696.52;;;8.87;58.16
55022;BME280;68328;35.990;-86.756;2023-03-22T11:10:19;99699.77;;;9.48;56.60
55022;BME280;68328;35.990;-86.756;2023-03-22T11:12:29;99691.82;;;7.66;62.33
55022;BME280;68328;35.990;-86.756;2023-03-22T11:14:55;99694.05;;;8.06;60.91
55022;BME280;68328;35.990;-86.756;2023-03-22T11:17:22;99691.22;;;8.54;59.26
55022;BME280;68328;35.990;-86.756;2023-03-22T11:19:52;99696.11;;;8.81;58.11
55022;BME280;68328;35.990;-86.756;2023-03-22T11:22:21;99696.43;;;7.97;61.93
55022;BME280;68328;35.990;-86.756;2023-03-22T11:24:37;99698.14;;;7.62;62.59
55022;BME280;68328;35.990;-86.756;2023-03-22T11:27:05;99696.73;;;7.58;63.44
55022;BME280;68328;35.990;-86.756;2023-03-22T11:29:27;99692.08;;;8.21;62.16
55022;BME280;68328;35.990;-86.756;2023-03-22T11:31:56;99690.53;;;7.52;64.26
55022;BME280;68328;35.990;-86.756;2023-03-22T11:34:20;99686.51;;;8.22;63.01
55022;BME280;68328;35.990;-86.756;2023-03-22T11:36:45;99682.22;;;7.66;64.84
55022;BME280;68328;35.990;-86.756;2023-03-22T11:39:11;99683.55;;;8.37;62.79
55022;BME280;68328;35.990;-86.756;2023-03-22T11:41:37;99679.02;;;7.10;68.59
55022;BME280;68328;35.990;-86.756;2023-03-22T11:44:03;99690.88;;;7.76;67.90
55022;BME280;68328;35.990;-86.756;2023-03-22T11:46:26;99683.47;;;7.07;69.52
55022;BME280;68328;35.990;-86.756;2023-03-22T11:48:56;99690.48;;;7.81;67.30
55022;BME280;68328;35.990;-86.756;2023-03-22T11:51:26;99698.19;;;7.38;67.89
55022;BME280;68328;35.990;-86.756;2023-03-22T11:53:46;99694.55;;;8.45;64.69
55022;BME280;68328;35.990;-86.756;2023-03-22T11:56:11;99687.48;;;9.29;62.95
55022;BME280;68328;35.990;-86.756;2023-03-22T11:58:49;99687.30;;;9.36;62.06
55022;BME280;68328;35.990;-86.756;2023-03-22T12:01:01;99687.56;;;8.21;64.79
55022;BME280;68328;35.990;-86.756;2023-03-22T12:03:29;99683.21;;;7.43;68.34
55022;BME280;68328;35.990;-86.756;2023-03-22T12:05:53;99697.91;;;6.97;70.57
55022;BME280;68328;35.990;-86.756;2023-03-22T12:08:24;99710.43;;;7.61;68.34
55022;BME280;68328;35.990;-86.756;2023-03-22T12:10:44;99713.01;;;7.79;66.58
55022;BME280;68328;35.990;-86.756;2023-03-22T12:13:13;99708.88;;;8.49;65.28
55022;BME280;68328;35.990;-86.756;2023-03-22T12:15:37;99699.56;;;7.21;69.40
55022;BME280;68328;35.990;-86.756;2023-03-22T12:18:04;99699.89;;;6.79;71.77
55022;BME280;68328;35.990;-86.756;2023-03-22T12:20:33;99703.76;;;6.36;75.27
55022;BME280;68328;35.990;-86.756;2023-03-22T12:22:53;99713.05;;;6.51;74.71
55022;BME280;68328;35.990;-86.756;2023-03-22T12:25:16;99720.41;;;6.83;75.44
55022;BME280;68328;35.990;-86.756;2023-03-22T12:27:44;99724.05;;;8.39;68.38
55022;BME280;68328;35.990;-86.756;2023-03-22T12:30:12;99743.48;;;6.93;74.32
55022;BME280;68328;35.990;-86.756;2023-03-22T12:32:34;99763.37;;;6.36;76.32
55022;BME280;68328;35.990;-86.756;2023-03-22T12:34:56;99770.57;;;6.15;77.83
55022;BME280;68328;35.990;-86.756;2023-03-22T12:37:26;99765.81;;;6.83;75.20
55022;BME280;68328;35.990;-86.756;2023-03-22T12:39:52;99762.18;;;6.48;76.17
55022;BME280;68328;35.990;-86.756;2023-03-22T12:42:19;99755.18;;;6.70;76.76
55022;BME280;68328;35.990;-86.756;2023-03-22T12:44:40;99752.19;;;6.76;75.47
55022;BME280;68328;35.990;-86.756;2023-03-22T12:47:05;99764.20;;;7.02;76.26